createdAt,value
2022-12-27T00:00:11.699Z,2.70
2022-12-27T00:02:42.794Z,2.97
2022-12-27T00:05:10.875Z,3.10
2022-12-27T00:07:38.277Z,2.67
2022-12-27T00:10:06.310Z,2.80
2022-12-27T00:12:33.506Z,2.83
2022-12-27T00:15:00.652Z,2.95
2022-12-27T00:17:28.223Z,3.00
2022-12-27T00:19:55.394Z,3.45
2022-12-27T00:22:22.688Z,3.00
2022-12-27T00:24:50.939Z,2.75
2022-12-27T00:27:18.291Z,2.85
2022-12-27T00:29:45.707Z,3.25
2022-12-27T00:32:13.046Z,3.70
2022-12-27T00:34:40.341Z,3.75
2022-12-27T00:37:07.731Z,3.33
2022-12-27T00:39:34.901Z,3.20
2022-12-27T00:42:02.188Z,3.42
2022-12-27T00:44:29.389Z,3.80
2022-12-27T00:46:56.672Z,3.45
2022-12-27T00:49:24.084Z,3.25
2022-12-27T00:51:51.427Z,3.63
2022-12-27T00:54:19.006Z,4.07
2022-12-27T00:56:47.695Z,4.22
2022-12-27T00:59:14.915Z,4.22
2022-12-27T01:01:42.222Z,4.00
2022-12-27T01:04:11.511Z,4.18
2022-12-27T01:06:39.458Z,4.05
2022-12-27T01:09:07.397Z,4.03
2022-12-27T01:11:34.787Z,4.15
2022-12-27T01:14:03.975Z,4.35
2022-12-27T01:16:31.857Z,3.97
2022-12-27T01:19:00.937Z,4.03
2022-12-27T01:21:31.041Z,4.03
2022-12-27T01:23:58.488Z,4.00
2022-12-27T01:26:26.067Z,4.15
2022-12-27T01:28:54.033Z,4.55
2022-12-27T01:31:27.246Z,4.22
2022-12-27T01:33:55.786Z,4.30
2022-12-27T01:36:26.658Z,3.88
2022-12-27T01:38:53.996Z,4.30
2022-12-27T01:41:51.569Z,4.20
2022-12-27T01:44:38.031Z,3.80
2022-12-27T01:47:06.808Z,4.45
2022-12-27T01:49:37.857Z,3.70
2022-12-27T01:52:05.171Z,3.28
2022-12-27T01:54:33.801Z,3.55
2022-12-27T01:57:01.023Z,3.35
2022-12-27T01:59:28.567Z,3.28
2022-12-27T02:01:55.964Z,3.80
2022-12-27T02:04:25.422Z,3.35
2022-12-27T02:06:52.974Z,3.58
2022-12-27T02:09:30.780Z,3.70
2022-12-27T02:12:04.133Z,2.97
2022-12-27T02:17:00.306Z,2.80
2022-12-27T02:19:33.649Z,3.10
2022-12-27T02:24:27.899Z,2.42
2022-12-27T02:27:15.597Z,3.80
2022-12-27T02:30:01.702Z,3.20
2022-12-27T02:32:49.138Z,3.17
2022-12-27T02:35:22.610Z,3.03
2022-12-27T02:37:55.466Z,3.42
2022-12-27T02:40:42.943Z,2.92
2022-12-27T02:43:29.446Z,3.08
2022-12-27T02:46:30.540Z,2.80
2022-12-27T02:49:17.728Z,2.80
2022-12-27T02:52:17.283Z,2.70
2022-12-27T02:54:53.071Z,2.65
2022-12-27T02:57:28.444Z,3.00
2022-12-27T03:00:21.971Z,2.50
2022-12-27T03:03:17.990Z,2.38
2022-12-27T03:06:14.423Z,2.60
2022-12-27T03:08:55.841Z,2.60
2022-12-27T03:11:42.541Z,2.90
2022-12-27T03:14:34.269Z,2.75
2022-12-27T03:17:11.353Z,3.15
2022-12-27T03:20:23.945Z,2.88
2022-12-27T03:23:10.710Z,2.90
2022-12-27T03:25:39.513Z,2.88
2022-12-27T03:28:54.616Z,2.95
2022-12-27T03:31:46.072Z,2.33
2022-12-27T03:34:32.829Z,2.42
2022-12-27T03:37:22.204Z,2.50
2022-12-27T03:40:09.202Z,2.60
2022-12-27T03:42:57.948Z,2.28
2022-12-27T03:45:49.762Z,2.60
2022-12-27T03:48:20.171Z,2.38
2022-12-27T03:50:50.105Z,2.95
2022-12-27T03:53:24.983Z,1.92
2022-12-27T03:55:52.349Z,2.33
2022-12-27T03:58:19.718Z,2.15
2022-12-27T04:00:49.595Z,1.98
2022-12-27T04:03:16.963Z,1.90
2022-12-27T04:05:44.837Z,1.80
2022-12-27T04:08:32.027Z,2.00
2022-12-27T04:11:17.987Z,2.28
2022-12-27T04:14:03.818Z,1.67
2022-12-27T04:16:49.992Z,1.88
2022-12-27T04:19:36.104Z,1.95
2022-12-27T04:22:22.014Z,1.70
2022-12-27T04:25:08.011Z,1.70
2022-12-27T04:27:54.164Z,1.77
2022-12-27T04:30:39.904Z,1.90
2022-12-27T04:33:26.073Z,1.55
2022-12-27T04:35:53.420Z,2.03
2022-12-27T04:38:20.851Z,1.63
2022-12-27T04:41:06.737Z,1.67
2022-12-27T04:43:52.948Z,2.08
2022-12-27T04:46:41.721Z,1.92
2022-12-27T04:49:43.925Z,1.95
2022-12-27T04:52:34.443Z,3.85
2022-12-27T04:55:03.555Z,4.60
2022-12-27T04:57:30.942Z,4.55
2022-12-27T05:00:17.034Z,4.45
2022-12-27T05:02:44.939Z,4.07
2022-12-27T05:05:12.791Z,3.30
2022-12-27T05:07:58.807Z,2.63
2022-12-27T05:10:45.372Z,7.65
2022-12-27T05:13:32.071Z,9.45
2022-12-27T05:15:59.506Z,8.55
2022-12-27T05:18:27.701Z,4.07
2022-12-27T05:20:54.918Z,4.80
2022-12-27T05:23:40.799Z,3.38
2022-12-27T05:26:08.204Z,3.47
2022-12-27T05:28:35.406Z,3.90
2022-12-27T05:31:03.141Z,3.40
2022-12-27T05:33:34.087Z,3.65
2022-12-27T05:36:01.345Z,2.90
2022-12-27T05:38:31.141Z,3.67
2022-12-27T05:40:59.212Z,4.78
2022-12-27T05:43:27.325Z,3.03
2022-12-27T05:45:54.858Z,3.50
2022-12-27T05:48:22.778Z,3.30
2022-12-27T05:50:49.958Z,3.08
2022-12-27T05:53:20.809Z,3.00
2022-12-27T05:55:57.520Z,2.95
2022-12-27T05:58:26.788Z,2.83
2022-12-27T06:00:54.070Z,3.25
2022-12-27T06:03:21.406Z,2.83
2022-12-27T06:05:48.902Z,3.75
2022-12-27T06:08:16.480Z,5.68
2022-12-27T06:10:45.310Z,5.68
2022-12-27T06:13:13.132Z,9.93
2022-12-27T06:15:40.541Z,5.80
2022-12-27T06:18:07.723Z,3.47
2022-12-27T06:20:37.267Z,2.67
2022-12-27T06:23:04.641Z,2.88
2022-12-27T06:25:31.975Z,3.17
2022-12-27T06:27:59.354Z,3.30
2022-12-27T06:30:29.336Z,2.88
2022-12-27T06:33:00.122Z,2.97
2022-12-27T06:35:27.469Z,3.00
2022-12-27T06:37:54.616Z,4.90
2022-12-27T06:40:21.976Z,3.38
2022-12-27T06:42:49.162Z,3.88
2022-12-27T06:45:16.325Z,2.17
2022-12-27T06:47:43.464Z,2.67
2022-12-27T06:50:10.801Z,1.88
2022-12-27T06:52:37.968Z,2.13
2022-12-27T06:55:05.249Z,2.30
2022-12-27T06:57:32.391Z,1.80
2022-12-27T06:59:59.506Z,2.22
2022-12-27T07:02:26.765Z,1.83
2022-12-27T07:04:53.952Z,2.10
2022-12-27T07:07:21.328Z,1.63
2022-12-27T07:09:48.580Z,1.48
2022-12-27T07:12:15.762Z,2.08
2022-12-27T07:14:43.041Z,2.00
2022-12-27T07:17:10.356Z,1.60
2022-12-27T07:19:37.612Z,1.95
2022-12-27T07:22:04.817Z,2.22
2022-12-27T07:24:33.361Z,2.90
2022-12-27T07:27:02.119Z,2.85
2022-12-27T07:29:29.384Z,2.38
2022-12-27T07:31:56.554Z,2.63
2022-12-27T07:34:23.708Z,3.17
2022-12-27T07:36:50.911Z,3.70
2022-12-27T07:39:18.049Z,2.70
2022-12-27T07:41:45.221Z,2.47
2022-12-27T07:44:12.363Z,5.93
2022-12-27T07:46:40.075Z,5.72
2022-12-27T07:49:09.971Z,2.25
2022-12-27T07:51:41.065Z,2.05
2022-12-27T07:54:08.253Z,2.42
2022-12-27T07:56:35.398Z,2.25
2022-12-27T07:59:02.941Z,2.90
2022-12-27T08:01:51.078Z,1.90
2022-12-27T08:04:18.403Z,2.50
2022-12-27T08:06:46.400Z,2.00
2022-12-27T08:09:15.021Z,2.40
2022-12-27T08:11:42.139Z,2.03
2022-12-27T08:14:09.295Z,1.63
2022-12-27T08:16:36.460Z,2.05
2022-12-27T08:19:08.409Z,1.75
2022-12-27T08:21:35.904Z,1.98
2022-12-27T08:24:03.104Z,1.98
2022-12-27T08:26:30.272Z,1.70
2022-12-27T08:28:57.497Z,2.53
2022-12-27T08:31:27.423Z,1.20
2022-12-27T08:33:58.479Z,1.52
2022-12-27T08:36:54.315Z,1.48
2022-12-27T08:39:13.324Z,1.52
2022-12-27T08:41:40.443Z,2.40
2022-12-27T08:44:07.584Z,22.20
2022-12-27T08:46:34.999Z,16.15
2022-12-27T08:49:02.402Z,3.30
2022-12-27T08:51:37.245Z,8.80
2022-12-27T08:54:07.603Z,2.72
2022-12-27T08:56:34.767Z,2.90
2022-12-27T08:59:01.992Z,2.47
2022-12-27T09:01:29.355Z,1.92
2022-12-27T09:03:56.639Z,3.83
2022-12-27T09:06:25.624Z,3.40
2022-12-27T09:08:54.719Z,2.10
2022-12-27T09:11:22.023Z,2.00
2022-12-27T09:13:49.782Z,1.30
2022-12-27T09:16:18.115Z,1.27
2022-12-27T09:18:47.831Z,1.40
2022-12-27T09:21:17.022Z,1.10
2022-12-27T09:23:44.926Z,1.10
2022-12-27T09:26:16.283Z,1.10
2022-12-27T09:28:43.719Z,1.17
2022-12-27T09:31:11.841Z,1.83
2022-12-27T09:33:39.105Z,1.08
2022-12-27T09:36:08.217Z,1.20
2022-12-27T09:38:35.789Z,1.50
2022-12-27T09:41:05.321Z,2.30
2022-12-27T09:43:37.870Z,1.88
2022-12-27T09:46:06.603Z,1.37
2022-12-27T09:48:36.849Z,1.65
2022-12-27T09:51:05.793Z,1.30
2022-12-27T09:53:41.925Z,1.70
2022-12-27T09:56:12.225Z,1.70
2022-12-27T09:58:48.895Z,1.30
2022-12-27T10:01:30.323Z,1.80
2022-12-27T10:03:57.626Z,1.55
2022-12-27T10:06:40.885Z,1.50
2022-12-27T10:09:26.980Z,1.52
2022-12-27T10:12:01.990Z,0.90
2022-12-27T10:14:30.284Z,1.10
2022-12-27T10:17:04.686Z,1.20
2022-12-27T10:19:40.900Z,1.05
2022-12-27T10:22:17.967Z,1.20
2022-12-27T10:24:48.306Z,1.10
2022-12-27T10:27:17.012Z,0.90
2022-12-27T10:29:44.198Z,1.00
2022-12-27T10:32:13.878Z,1.00
2022-12-27T10:34:41.155Z,1.10
2022-12-27T10:37:09.798Z,1.02
2022-12-27T10:39:38.672Z,1.42
2022-12-27T10:42:24.569Z,1.73
2022-12-27T10:44:51.739Z,2.30
2022-12-27T10:47:19.094Z,1.33
2022-12-27T10:50:02.939Z,1.75
2022-12-27T10:52:32.649Z,1.48
2022-12-27T10:55:00.089Z,1.15
2022-12-27T10:57:34.404Z,1.08
2022-12-27T11:00:21.268Z,0.80
2022-12-27T11:02:55.675Z,1.00
2022-12-27T11:05:27.615Z,0.93
2022-12-27T11:07:54.872Z,1.40
2022-12-27T11:10:23.531Z,1.33
2022-12-27T11:13:03.300Z,0.95
2022-12-27T11:15:34.979Z,1.00
2022-12-27T11:18:10.993Z,0.90
2022-12-27T11:20:45.958Z,0.90
2022-12-27T11:23:16.493Z,0.88
2022-12-27T11:25:54.162Z,1.10
2022-12-27T11:28:39.577Z,1.10
2022-12-27T11:31:15.276Z,0.80
2022-12-27T11:33:48.543Z,0.88
2022-12-27T11:36:23.408Z,1.05
2022-12-27T11:38:51.473Z,0.98
2022-12-27T11:41:32.374Z,0.90
2022-12-27T11:44:02.143Z,0.73
2022-12-27T11:46:32.922Z,1.27
2022-12-27T11:49:00.149Z,0.70
2022-12-27T11:51:40.594Z,0.88
2022-12-27T11:54:15.907Z,1.10
2022-12-27T11:56:46.120Z,1.25
2022-12-27T11:59:33.287Z,0.90
2022-12-27T12:02:15.840Z,0.95
2022-12-27T12:04:49.098Z,0.60
2022-12-27T12:07:35.275Z,0.80
2022-12-27T12:10:25.723Z,0.80
2022-12-27T12:13:12.170Z,0.80
2022-12-27T12:15:45.422Z,0.47
2022-12-27T12:18:13.615Z,1.00
2022-12-27T12:20:59.577Z,0.80
2022-12-27T12:23:45.587Z,0.88
2022-12-27T12:26:21.169Z,0.93
2022-12-27T12:29:00.290Z,1.30
2022-12-27T12:31:46.995Z,0.93
2022-12-27T12:34:32.898Z,0.93
2022-12-27T12:37:18.410Z,0.70
2022-12-27T12:40:04.530Z,0.80
2022-12-27T12:42:34.677Z,0.80
2022-12-27T12:45:01.897Z,0.77
2022-12-27T12:47:29.027Z,1.02
2022-12-27T12:50:15.207Z,0.80
2022-12-27T12:53:08.946Z,0.90
2022-12-27T12:55:48.401Z,0.90
2022-12-27T12:58:29.625Z,1.10
2022-12-27T13:00:56.814Z,0.80
2022-12-27T13:03:46.390Z,1.00
2022-12-27T13:06:18.201Z,0.95
2022-12-27T13:08:45.419Z,1.33
2022-12-27T13:11:29.951Z,1.50
2022-12-27T13:13:57.094Z,1.17
2022-12-27T13:17:09.003Z,0.80
2022-12-27T13:19:51.412Z,1.00
2022-12-27T13:22:37.902Z,1.40
2022-12-27T13:25:17.523Z,0.88
2022-12-27T13:28:03.494Z,1.08
2022-12-27T13:30:36.154Z,0.85
2022-12-27T13:33:22.631Z,1.20
2022-12-27T13:36:04.995Z,1.58
2022-12-27T13:38:51.396Z,0.80
2022-12-27T13:41:30.882Z,1.10
2022-12-27T13:44:17.104Z,1.48
2022-12-27T13:46:50.557Z,1.08
2022-12-27T13:51:44.915Z,0.90
2022-12-27T13:54:41.489Z,0.90
2022-12-27T13:57:14.852Z,1.10
2022-12-27T13:59:52.005Z,0.88
2022-12-27T14:02:30.478Z,1.92
2022-12-27T14:05:11.933Z,3.00
2022-12-27T14:07:48.289Z,1.05
2022-12-27T14:10:21.793Z,1.08
2022-12-27T14:15:39.374Z,1.50
2022-12-27T14:18:21.958Z,1.35
2022-12-27T14:20:55.229Z,1.20
2022-12-27T14:23:29.693Z,1.00
2022-12-27T14:26:15.651Z,1.15
2022-12-27T14:29:10.113Z,1.05
2022-12-27T14:31:56.270Z,1.02
2022-12-27T14:34:35.763Z,1.10
2022-12-27T14:37:12.084Z,1.40
2022-12-27T14:39:49.377Z,1.05
2022-12-27T14:42:36.840Z,1.20
2022-12-27T14:45:18.956Z,0.73
2022-12-27T14:48:04.856Z,1.38
2022-12-27T14:50:50.800Z,1.45
2022-12-27T14:53:32.444Z,1.40
2022-12-27T14:56:10.309Z,1.80
2022-12-27T14:58:55.292Z,5.28
2022-12-27T15:01:51.918Z,4.15
2022-12-27T15:04:34.410Z,3.08
2022-12-27T15:07:01.579Z,2.53
2022-12-27T15:09:49.347Z,2.00
2022-12-27T15:12:19.606Z,2.05
2022-12-27T15:14:57.241Z,2.65
2022-12-27T15:17:39.110Z,2.42
2022-12-27T15:20:14.673Z,2.95
2022-12-27T15:22:48.260Z,4.18
2022-12-27T15:25:27.494Z,3.55
2022-12-27T15:28:00.004Z,3.42
2022-12-27T15:30:41.153Z,3.55
2022-12-27T15:33:23.995Z,4.55
2022-12-27T15:36:14.369Z,5.53
2022-12-27T15:38:54.487Z,6.57
2022-12-27T15:41:33.057Z,6.70
2022-12-27T15:44:15.890Z,6.22
2022-12-27T15:46:46.066Z,7.68
2022-12-27T15:49:32.106Z,7.45
2022-12-27T15:52:22.506Z,9.30
2022-12-27T15:55:04.954Z,8.88
2022-12-27T15:57:42.940Z,8.68
2022-12-27T16:00:10.270Z,6.28
2022-12-27T16:02:51.215Z,6.03
2022-12-27T16:05:25.725Z,5.45
2022-12-27T16:07:59.144Z,4.47
2022-12-27T16:12:54.581Z,7.25
2022-12-27T16:15:43.263Z,8.20
2022-12-27T16:18:33.463Z,5.55
2022-12-27T16:21:02.484Z,2.83
2022-12-27T16:23:31.813Z,3.45
2022-12-27T16:26:02.175Z,6.57
2022-12-27T16:28:29.994Z,4.53
2022-12-27T16:31:01.292Z,3.15
2022-12-27T16:33:29.226Z,2.17
2022-12-27T16:36:23.028Z,2.42
2022-12-27T16:39:00.041Z,3.13
2022-12-27T16:41:30.273Z,2.67
2022-12-27T16:44:00.611Z,1.80
2022-12-27T16:46:42.841Z,2.35
2022-12-27T16:49:23.376Z,3.17
2022-12-27T16:52:03.928Z,2.03
2022-12-27T16:54:44.095Z,2.03
2022-12-27T16:57:26.663Z,1.65
2022-12-27T16:59:58.156Z,2.20
2022-12-27T17:02:33.471Z,1.95
2022-12-27T17:05:01.539Z,2.42
2022-12-27T17:07:43.287Z,1.48
2022-12-27T17:10:25.727Z,1.85
2022-12-27T17:13:00.020Z,2.65
2022-12-27T17:15:27.825Z,1.60
2022-12-27T17:17:57.369Z,1.77
2022-12-27T17:20:25.370Z,2.72
2022-12-27T17:22:55.059Z,2.25
2022-12-27T17:25:26.157Z,2.30
2022-12-27T17:28:08.507Z,1.88
2022-12-27T17:30:54.510Z,2.70
2022-12-27T17:33:32.810Z,2.65
2022-12-27T17:36:18.876Z,2.03
2022-12-27T17:38:54.744Z,1.95
2022-12-27T17:42:05.772Z,5.22
2022-12-27T17:44:40.168Z,4.78
2022-12-27T17:47:25.727Z,7.40
2022-12-27T17:49:56.026Z,7.50
2022-12-27T17:52:44.836Z,7.25
2022-12-27T17:55:35.899Z,3.80
2022-12-27T17:58:04.570Z,4.40
2022-12-27T18:00:34.083Z,4.03
2022-12-27T18:03:03.238Z,4.13
2022-12-27T18:05:32.179Z,5.57
2022-12-27T18:08:06.968Z,4.63
2022-12-27T18:10:36.546Z,4.63
2022-12-27T18:13:05.597Z,2.67
2022-12-27T18:15:34.641Z,2.22
2022-12-27T18:18:06.872Z,2.30
2022-12-27T18:20:38.013Z,2.05
2022-12-27T18:23:06.124Z,2.55
2022-12-27T18:25:36.522Z,5.97
2022-12-27T18:28:03.771Z,5.05
2022-12-27T18:30:36.071Z,4.55
2022-12-27T18:33:03.699Z,5.45
2022-12-27T18:35:31.272Z,5.05
2022-12-27T18:37:58.512Z,3.85
2022-12-27T18:40:26.351Z,3.72
2022-12-27T18:42:54.539Z,3.15
2022-12-27T18:45:23.289Z,3.03
2022-12-27T18:47:52.051Z,3.20
2022-12-27T18:50:21.243Z,2.50
2022-12-27T18:52:53.078Z,2.30
2022-12-27T18:55:26.856Z,2.95
2022-12-27T18:58:20.467Z,3.15
2022-12-27T19:03:16.897Z,3.47
2022-12-27T19:06:01.731Z,3.67
2022-12-27T19:08:48.922Z,2.42
2022-12-27T19:11:28.391Z,2.15
2022-12-27T19:13:59.587Z,2.83
2022-12-27T19:16:29.474Z,2.03
2022-12-27T19:19:01.927Z,2.25
2022-12-27T19:21:30.124Z,2.47
2022-12-27T19:23:57.273Z,1.80
2022-12-27T19:26:33.597Z,2.22
2022-12-27T19:29:08.283Z,2.47
2022-12-27T19:31:36.558Z,2.00
2022-12-27T19:34:07.632Z,2.50
2022-12-27T19:36:39.053Z,2.58
2022-12-27T19:39:23.211Z,2.47
2022-12-27T19:41:51.267Z,2.13
2022-12-27T19:44:18.692Z,2.10
2022-12-27T19:46:45.899Z,2.70
2022-12-27T19:49:40.820Z,2.30
2022-12-27T19:52:00.367Z,2.47
2022-12-27T19:54:28.151Z,2.72
2022-12-27T19:56:55.713Z,3.05
2022-12-27T19:59:26.826Z,2.67
2022-12-27T20:01:54.253Z,2.67
2022-12-27T20:04:21.582Z,2.40
2022-12-27T20:06:49.840Z,2.47
2022-12-27T20:09:18.335Z,2.50
2022-12-27T20:11:45.886Z,2.75
2022-12-27T20:14:14.734Z,2.30
2022-12-27T20:16:42.110Z,2.47
2022-12-27T20:19:10.901Z,2.15
2022-12-27T20:21:39.588Z,2.42
2022-12-27T20:24:07.010Z,2.30
2022-12-27T20:26:34.198Z,2.25
2022-12-27T20:29:01.422Z,2.13
2022-12-27T20:31:30.093Z,2.15
2022-12-27T20:33:57.396Z,2.25
2022-12-27T20:36:24.875Z,2.30
2022-12-27T20:38:52.081Z,2.30
2022-12-27T20:41:20.271Z,2.22
2022-12-27T20:43:47.475Z,2.05
2022-12-27T20:46:16.118Z,2.17
2022-12-27T20:48:44.511Z,2.20
2022-12-27T20:51:13.007Z,2.17
2022-12-27T20:53:40.208Z,2.05
2022-12-27T20:56:08.969Z,2.00
2022-12-27T20:58:36.335Z,1.73
2022-12-27T21:01:09.691Z,2.38
2022-12-27T21:03:37.608Z,1.30
2022-12-27T21:06:09.248Z,1.60
2022-12-27T21:08:44.569Z,1.52
2022-12-27T21:11:15.575Z,1.30
2022-12-27T21:13:43.484Z,1.48
2022-12-27T21:16:11.418Z,1.25
2022-12-27T21:18:38.916Z,1.50
2022-12-27T21:21:07.451Z,1.58
2022-12-27T21:23:35.292Z,1.60
2022-12-27T21:26:05.577Z,1.55
2022-12-27T21:28:32.887Z,1.33
2022-12-27T21:31:00.222Z,2.30
2022-12-27T21:33:27.916Z,1.80
2022-12-27T21:36:06.087Z,1.60
2022-12-27T21:38:33.817Z,1.40
2022-12-27T21:41:02.239Z,1.23
2022-12-27T21:43:29.983Z,1.52
2022-12-27T21:45:57.864Z,1.45
2022-12-27T21:48:25.770Z,2.08
2022-12-27T21:50:52.969Z,1.30
2022-12-27T21:53:20.593Z,1.70
2022-12-27T21:55:47.770Z,1.92
2022-12-27T21:58:15.032Z,1.60
2022-12-27T22:00:42.348Z,1.45
2022-12-27T22:03:09.747Z,1.45
2022-12-27T22:05:36.973Z,1.52
2022-12-27T22:08:04.147Z,1.55
2022-12-27T22:10:31.348Z,1.50
2022-12-27T22:12:58.588Z,1.73
2022-12-27T22:15:25.981Z,1.95
2022-12-27T22:17:54.700Z,1.52
2022-12-27T22:20:21.867Z,1.60
2022-12-27T22:22:49.034Z,1.92
2022-12-27T22:25:16.322Z,1.30
2022-12-27T22:27:43.514Z,1.40
2022-12-27T22:30:11.651Z,1.83
2022-12-27T22:32:38.758Z,1.30
2022-12-27T22:35:06.107Z,1.92
2022-12-27T22:37:33.278Z,1.40
2022-12-27T22:40:00.664Z,1.30
2022-12-27T22:42:28.016Z,1.48
2022-12-27T22:44:55.179Z,1.30
2022-12-27T22:47:27.336Z,1.67
2022-12-27T22:49:55.100Z,1.90
2022-12-27T22:52:22.243Z,1.55
2022-12-27T22:55:03.899Z,1.20
2022-12-27T22:57:34.337Z,1.40
2022-12-27T23:00:01.542Z,1.52
2022-12-27T23:02:28.773Z,1.80
2022-12-27T23:04:56.123Z,1.15
2022-12-27T23:08:04.503Z,1.50
2022-12-27T23:10:10.584Z,1.25
2022-12-27T23:12:37.864Z,1.58
2022-12-27T23:15:07.605Z,1.50
2022-12-27T23:17:34.737Z,1.85
2022-12-27T23:20:01.981Z,1.48
2022-12-27T23:22:29.163Z,1.42
2022-12-27T23:24:56.336Z,1.23
2022-12-27T23:27:23.540Z,1.45
2022-12-27T23:29:50.916Z,1.38
2022-12-27T23:32:18.083Z,1.42
2022-12-27T23:34:45.279Z,1.67
2022-12-27T23:37:12.407Z,1.60
2022-12-27T23:39:39.572Z,2.00
2022-12-27T23:42:06.682Z,1.48
2022-12-27T23:44:34.944Z,1.65
2022-12-27T23:47:03.213Z,1.50
2022-12-27T23:49:30.915Z,1.70
2022-12-27T23:51:58.192Z,1.30
2022-12-27T23:54:25.360Z,1.50
2022-12-27T23:56:52.522Z,1.20
2022-12-27T23:59:19.798Z,1.77
